Mc Allen Miller International Airport
KMFE : now visible

Airfield :











YOU CAN JOIN US ON...

 
LOGIN :

Register | Disclaimer

   EN    FR    IT 

 









Legend :    VFR   Marginal VFR   IFR   Intensive IFR   Very Intensive IFR
Visi :
Ceiling :
>= 8 km
>= 3000ft
5 to 8 km
1000 to 3000 ft
1500m to 5 km
500 to 1000 ft
800 to 1500m
200 to 500 ft
< 800m
< 200 ft
Symbols :   Thunderstorms  Fog  Heavy snow  Heavy precipitations  Wind > 20 kt






- Airport Elevation : 107 ft
- IATA code : MFE


KMFE - Mc Allen Miller International

CURRENT METAR :
  • 200153Z 12013KT 10SM CLR 28/21 A2988 RMK AO2 SLP115 T02780206

EXPIRED METARs :
  • 200053Z 12012KT 10SM CLR 29/19 A2984 RMK AO2 SLP102 T02890194
  • 192353Z 13015KT 10SM CLR 31/20 A2984 RMK AO2 SLP101 T03110200 10339 20311 55009
  • 192253Z 14016G22KT 10SM FEW044 33/21 A2983 RMK AO2 SLP099 T03280211
  • 192153Z 12011G18KT 10SM OVC045 33/22 A2984 RMK AO2 SLP104 T03330222

TAF KMFE
Valid from the 20 at 00:00 until the 21 at 00:00 UTC


192333Z 2000/2024 12013G20KT P6SM SCT040
FM200300 12011KT P6SM BKN035
FM200600 12008KT P6SM OVC015
FM201700 14012G20KT P6SM BKN035
KZHU FIR / North America



MET'MAP, your aeronautical weather chart ! - Copyright ORBIFLY December 2007 - Disclaimer

ORBIFLY MET'MAP TEAM :

Programming & Development : Alexandra Zaïnal
Original concept : Baudouin d'Aumeries
Technical & hardware support : Manuel Goepfert
Assistance : Marc-Olivier Méhu




SOURCES & CREDITS :

   NOAA       Earth
Advisory